Time;durP1;ratioP1;P1;durP2;ratioP2;P2;SDS_P1;SDS_P2;PMS_P1;PMS_P2;Temp;Humidity;BMP_temperature;BMP_pressure;BME280_temperature;BME280_humidity;BME280_pressure;Samples;Min_cycle;Max_cycle;Signal;HPM_P1;HPM_P2
2023/07/12 00:34:32;;;;;;;26.90;4.97;;;24.00;99.90;;;;;;5013828;28;20405;-73
2023/07/12 00:37:41;;;;;;;23.13;5.55;;;23.90;99.90;;;;;;4989277;28;20061;-74
2023/07/12 00:41:19;;;;;;;29.10;5.32;;;23.80;99.90;;;;;;4978787;28;20062;-73
2023/07/12 00:44:35;;;;;;;25.80;5.10;;;23.80;99.90;;;;;;4996550;28;20041;-73
2023/07/12 00:47:40;;;;;;;25.55;5.85;;;23.90;99.90;;;;;;5000221;28;20037;-73
2023/07/12 00:50:49;;;;;;;25.98;6.72;;;23.80;99.90;;;;;;5011109;28;20045;-73
2023/07/12 00:53:57;;;;;;;25.38;5.90;;;23.80;99.90;;;;;;4998902;28;20049;-73
2023/07/12 00:57:45;;;;;;;;;;;23.70;99.90;;;;;;5011396;28;20057;-73
2023/07/12 01:00:52;;;;;;;27.23;5.57;;;23.70;99.90;;;;;;4998865;28;20356;-73
2023/07/12 01:03:57;;;;;;;35.35;6.43;;;23.70;99.90;;;;;;4998791;28;20049;-73
2023/07/12 01:07:03;;;;;;;20.67;5.55;;;23.70;99.90;;;;;;4998603;28;20059;-73
2023/07/12 01:10:08;;;;;;;29.05;6.20;;;23.60;99.90;;;;;;4998778;28;20057;-73
2023/07/12 01:13:23;;;;;;;27.67;5.45;;;23.50;99.90;;;;;;5010738;28;20041;-74
2023/07/12 01:16:27;;;;;;;20.42;5.68;;;23.40;99.90;;;;;;5002513;28;20041;-73
2023/07/12 01:19:33;;;;;;;23.45;5.47;;;23.30;99.90;;;;;;5014996;28;20044;-73
2023/07/12 01:22:38;;;;;;;17.15;5.03;;;23.20;99.90;;;;;;5014266;28;20045;-73
2023/07/12 01:25:45;;;;;;;24.05;5.80;;;23.20;99.90;;;;;;5002416;28;20500;-73
2023/07/12 01:28:55;;;;;;;20.15;5.70;;;23.20;99.90;;;;;;5014741;28;20049;-74
2023/07/12 01:32:00;;;;;;;18.75;5.38;;;23.20;99.90;;;;;;5014422;28;20044;-73
2023/07/12 01:35:06;;;;;;;22.17;5.18;;;23.10;99.90;;;;;;5014256;28;20404;-73
2023/07/12 01:38:10;;;;;;;23.42;5.03;;;23.00;99.90;;;;;;5014144;28;20228;-73
2023/07/12 01:41:14;;;;;;;24.55;5.28;;;23.00;99.90;;;;;;5014557;28;20049;-74
2023/07/12 01:44:18;;;;;;;17.80;5.57;;;23.00;99.90;;;;;;5014310;28;20049;-73
2023/07/12 01:47:43;;;;;;;19.90;5.32;;;22.80;99.90;;;;;;5013945;28;20396;-73
2023/07/12 01:50:47;;;;;;;16.70;5.03;;;22.70;99.90;;;;;;5014095;28;20068;-73
2023/07/12 01:53:52;;;;;;;19.58;5.35;;;22.60;99.90;;;;;;5013995;28;20049;-73
2023/07/12 01:56:57;;;;;;;19.73;4.72;;;22.50;99.90;;;;;;5002076;28;20041;-73
2023/07/12 02:00:01;;;;;;;17.98;4.70;;;22.50;99.90;;;;;;5002146;28;20037;-73
2023/07/12 02:03:05;;;;;;;20.95;5.35;;;22.50;99.90;;;;;;5001782;28;20045;-72
2023/07/12 02:06:08;;;;;;;18.65;5.35;;;22.60;99.90;;;;;;5013879;28;20037;-73
2023/07/12 02:09:12;;;;;;;15.10;4.30;;;22.60;99.90;;;;;;5001745;28;20056;-73
2023/07/12 02:12:16;;;;;;;16.98;4.45;;;22.80;99.90;;;;;;5013748;28;20037;-73
2023/07/12 02:15:20;;;;;;;17.08;5.75;;;23.10;99.90;;;;;;5013805;28;20049;-73
2023/07/12 02:18:24;;;;;;;10.65;3.95;;;23.40;99.90;;;;;;5013835;28;20385;-73
2023/07/12 02:21:29;;;;;;;10.85;4.45;;;23.50;99.90;;;;;;5001153;28;20045;-73
2023/07/12 02:24:33;;;;;;;11.20;4.20;;;23.90;99.90;;;;;;5000858;28;20114;-73
2023/07/12 02:27:38;;;;;;;11.48;3.95;;;24.20;99.90;;;;;;5001494;28;20049;-73
2023/07/12 02:30:44;;;;;;;10.63;4.55;;;24.40;99.90;;;;;;5013641;28;20044;-73
2023/07/12 02:33:51;;;;;;;14.15;4.20;;;24.50;99.90;;;;;;5013824;28;20048;-73
2023/07/12 02:36:55;;;;;;;7.80;3.65;;;24.50;99.90;;;;;;5017368;28;20048;-73
2023/07/12 02:39:59;;;;;;;8.32;3.70;;;24.60;99.90;;;;;;5033500;28;20048;-73
2023/07/12 02:43:03;;;;;;;10.57;4.32;;;24.60;99.90;;;;;;5033125;28;20044;-73
2023/07/12 02:46:07;;;;;;;12.57;4.10;;;24.70;99.90;;;;;;5033208;28;20044;-73
2023/07/12 02:49:12;;;;;;;13.82;4.47;;;24.70;99.90;;;;;;5033246;28;20499;-74
2023/07/12 02:52:16;;;;;;;14.65;4.88;;;24.40;99.90;;;;;;5020895;28;20044;-73
2023/07/12 02:55:20;;;;;;;14.50;4.15;;;24.30;99.90;;;;;;5032657;28;20056;-73
2023/07/12 02:58:24;;;;;;;12.55;4.32;;;24.10;99.90;;;;;;5032982;28;20041;-74
2023/07/12 03:01:28;;;;;;;15.65;4.18;;;23.90;99.90;;;;;;5032562;28;20040;-73
2023/07/12 03:04:32;;;;;;;10.73;4.53;;;23.90;99.90;;;;;;5033009;28;20416;-74
2023/07/12 03:07:38;;;;;;;13.98;4.10;;;23.90;99.90;;;;;;5032643;28;20056;-72
2023/07/12 03:10:42;;;;;;;20.88;4.55;;;23.80;99.90;;;;;;5032712;28;20040;-72
2023/07/12 03:13:46;;;;;;;8.57;4.38;;;24.00;99.90;;;;;;5032374;28;20048;-73
2023/07/12 03:16:50;;;;;;;11.23;4.00;;;24.20;99.90;;;;;;5032537;28;20040;-73
2023/07/12 03:19:54;;;;;;;10.82;3.60;;;24.40;99.90;;;;;;5032522;28;20052;-73
2023/07/12 03:22:58;;;;;;;9.63;4.20;;;24.50;99.90;;;;;;5032803;28;20044;-73
2023/07/12 03:26:03;;;;;;;15.55;4.82;;;24.60;99.90;;;;;;5032582;28;20054;-72
2023/07/12 03:29:07;;;;;;;10.52;4.68;;;24.80;99.90;;;;;;5032426;28;20588;-73
2023/07/12 03:32:11;;;;;;;9.65;4.03;;;25.00;99.90;;;;;;5032444;28;20049;-74
2023/07/12 03:35:15;;;;;;;18.27;4.38;;;25.10;99.90;;;;;;5032030;28;20044;-73
2023/07/12 03:38:20;;;;;;;14.20;4.32;;;25.10;99.90;;;;;;5031918;28;20048;-74
2023/07/12 03:41:24;;;;;;;9.15;3.83;;;25.10;99.90;;;;;;5032243;28;20045;-74
2023/07/12 03:44:28;;;;;;;9.50;4.55;;;24.90;99.90;;;;;;5036557;28;20048;-73
2023/07/12 03:47:32;;;;;;;10.07;5.05;;;24.30;99.90;;;;;;5032000;28;20060;-73
2023/07/12 03:50:46;;;;;;;18.75;4.72;;;24.10;99.90;;;;;;5031924;28;20491;-73
2023/07/12 03:53:50;;;;;;;15.13;4.45;;;23.80;99.90;;;;;;5031596;28;20044;-72
2023/07/12 03:56:54;;;;;;;10.43;4.38;;;23.80;99.90;;;;;;5031409;28;20041;-74
2023/07/12 03:59:58;;;;;;;14.02;4.95;;;23.90;99.90;;;;;;5030916;28;20067;-73
2023/07/12 04:03:02;;;;;;;11.93;3.97;;;24.10;99.90;;;;;;5031397;28;20064;-72
2023/07/12 04:06:07;;;;;;;11.77;4.55;;;24.20;99.90;;;;;;5031773;28;20048;-72
2023/07/12 04:09:11;;;;;;;8.88;4.32;;;24.10;99.90;;;;;;5031676;28;20065;-72
2023/07/12 04:12:14;;;;;;;15.75;4.50;;;23.90;99.90;;;;;;5031203;28;20060;-73
2023/07/12 04:15:18;;;;;;;13.25;4.35;;;23.80;99.90;;;;;;5030981;28;20049;-73
2023/07/12 04:18:24;;;;;;;12.93;5.20;;;23.60;99.90;;;;;;5030087;28;20475;-72
2023/07/12 04:21:27;;;;;;;11.63;4.60;;;23.50;99.90;;;;;;5030828;28;20080;-72
2023/07/12 04:24:31;;;;;;;13.43;5.07;;;23.50;99.90;;;;;;5031382;28;20113;-72
2023/07/12 04:27:37;;;;;;;12.05;4.00;;;23.50;99.90;;;;;;5031383;28;20502;-73
2023/07/12 04:30:42;;;;;;;8.38;4.53;;;23.60;99.90;;;;;;5030938;28;20503;-72
2023/07/12 04:33:47;;;;;;;11.75;4.75;;;23.60;99.90;;;;;;5031149;28;20056;-72
2023/07/12 04:36:53;;;;;;;10.05;4.85;;;23.50;99.90;;;;;;5030913;28;20048;-72
2023/07/12 04:39:57;;;;;;;15.15;5.10;;;23.80;99.90;;;;;;5031160;28;20044;-72
2023/07/12 04:43:01;;;;;;;10.85;4.97;;;24.40;99.90;;;;;;5030387;28;20044;-73
2023/07/12 04:46:06;;;;;;;13.35;4.82;;;24.80;99.90;;;;;;5030580;28;20037;-73
2023/07/12 04:49:10;;;;;;;16.02;5.20;;;24.10;99.90;;;;;;5030125;28;20068;-73
2023/07/12 04:52:14;;;;;;;15.90;5.22;;;24.00;99.90;;;;;;5025879;28;20388;-75
2023/07/12 04:55:25;;;;;;;12.95;5.60;;;24.10;99.90;;;;;;5017991;28;20045;-72
2023/07/12 04:58:29;;;;;;;15.00;4.85;;;24.40;99.90;;;;;;5010165;28;20048;-73
2023/07/12 05:01:33;;;;;;;10.43;4.70;;;25.20;99.90;;;;;;5009629;28;20065;-74
2023/07/12 05:04:37;;;;;;;24.17;6.63;;;25.80;99.90;;;;;;5009973;28;20401;-73
2023/07/12 05:07:42;;;;;;;13.77;5.13;;;25.50;99.90;;;;;;5016222;28;20052;-72
2023/07/12 05:10:46;;;;;;;16.58;5.05;;;25.30;99.90;;;;;;5024778;28;20060;-73
2023/07/12 05:13:50;;;;;;;11.57;4.70;;;25.30;99.90;;;;;;5029535;28;20044;-72
2023/07/12 05:16:54;;;;;;;15.15;5.45;;;25.40;99.90;;;;;;5024343;28;20039;-72
2023/07/12 05:19:58;;;;;;;20.02;6.13;;;26.10;99.90;;;;;;5017995;28;20064;-72
2023/07/12 05:23:02;;;;;;;18.02;5.72;;;26.90;99.90;;;;;;5023168;28;20049;-72
2023/07/12 05:26:07;;;;;;;15.50;5.13;;;27.60;99.90;;;;;;5037765;28;20128;-73
2023/07/12 05:29:12;;;;;;;16.45;5.03;;;27.20;99.90;;;;;;5020335;28;20040;-73
2023/07/12 05:32:16;;;;;;;15.77;4.90;;;27.90;99.90;;;;;;5020675;28;20396;-72
2023/07/12 05:35:20;;;;;;;12.85;5.45;;;27.90;99.90;;;;;;5030508;28;20048;-72
2023/07/12 05:38:24;;;;;;;13.23;5.25;;;28.00;99.90;;;;;;5026557;28;20041;-72
2023/07/12 05:41:28;;;;;;;14.02;4.88;;;27.20;99.90;;;;;;5010209;28;20389;-73
2023/07/12 05:44:32;;;;;;;14.82;4.50;;;27.20;99.90;;;;;;5011006;28;20060;-72
2023/07/12 05:47:37;;;;;;;11.80;4.70;;;27.90;99.90;;;;;;5030590;28;20408;-71
2023/07/12 05:50:42;;;;;;;19.13;5.43;;;28.20;99.90;;;;;;5029529;28;20052;-72
2023/07/12 05:53:46;;;;;;;15.32;4.50;;;28.80;99.90;;;;;;5029359;28;20060;-75
2023/07/12 05:56:50;;;;;;;15.63;4.95;;;28.60;99.90;;;;;;5025500;28;20483;-72
2023/07/12 05:59:54;;;;;;;12.32;4.25;;;28.20;99.90;;;;;;5031031;28;20052;-73
2023/07/12 06:02:58;;;;;;;20.30;5.82;;;28.20;99.90;;;;;;5026683;28;20052;-73
2023/07/12 06:06:06;;;;;;;12.48;4.60;;;28.60;99.90;;;;;;5031574;28;20048;-73
2023/07/12 06:09:10;;;;;;;12.40;4.88;;;29.50;99.90;;;;;;5031133;28;21752;-72
2023/07/12 06:12:14;;;;;;;14.38;4.25;;;29.70;99.90;;;;;;5031378;28;20057;-72
2023/07/12 06:15:18;;;;;;;15.23;5.03;;;30.00;99.90;;;;;;5028538;28;20048;-72
2023/07/12 06:18:23;;;;;;;14.95;4.45;;;29.50;99.90;;;;;;5021539;28;20037;-73
2023/07/12 06:21:27;;;;;;;19.58;5.80;;;29.00;99.90;;;;;;5025641;28;20040;-74
2023/07/12 06:24:31;;;;;;;16.90;4.57;;;28.90;99.90;;;;;;5025329;28;20048;-74
2023/07/12 06:27:35;;;;;;;13.23;5.00;;;28.10;99.90;;;;;;5022945;28;20053;-74
2023/07/12 06:30:39;;;;;;;13.88;4.05;;;28.50;99.90;;;;;;5025651;28;20068;-73
2023/07/12 06:33:43;;;;;;;13.50;4.18;;;30.10;99.90;;;;;;5030707;28;20044;-72
2023/07/12 06:36:47;;;;;;;21.90;4.47;;;31.00;99.90;;;;;;5030901;28;20053;-72
2023/07/12 06:39:51;;;;;;;14.55;4.05;;;31.30;99.60;;;;;;5025453;28;20036;-73
2023/07/12 06:42:55;;;;;;;16.73;4.53;;;30.50;99.90;;;;;;5028951;28;20044;-74
2023/07/12 06:46:00;;;;;;;12.48;4.63;;;31.10;99.60;;;;;;5024656;28;20487;-73
2023/07/12 06:49:04;;;;;;;28.35;5.50;;;31.40;99.50;;;;;;5022599;28;20396;-73
2023/07/12 06:52:11;;;;;;;17.38;4.47;;;31.10;99.90;;;;;;5028154;28;20629;-73
2023/07/12 06:55:15;;;;;;;17.30;4.15;;;30.90;99.60;;;;;;5030432;28;20048;-73
2023/07/12 06:58:18;;;;;;;18.33;4.90;;;31.80;99.10;;;;;;5029806;28;20057;-73
2023/07/12 07:01:22;;;;;;;13.02;4.20;;;32.40;98.20;;;;;;5023144;28;20044;-73
2023/07/12 07:04:26;;;;;;;18.27;4.85;;;31.70;98.20;;;;;;5020146;28;20487;-73
2023/07/12 07:07:31;;;;;;;16.67;5.03;;;31.30;98.60;;;;;;5027622;28;20049;-73
2023/07/12 07:10:35;;;;;;;11.40;4.15;;;32.40;98.00;;;;;;5026962;28;20049;-77
2023/07/12 07:13:39;;;;;;;8.88;4.07;;;31.40;98.30;;;;;;5028517;28;20051;-76
2023/07/12 07:16:43;;;;;;;20.10;4.28;;;31.00;98.60;;;;;;5022824;28;20665;-74
2023/07/12 07:19:47;;;;;;;14.82;4.22;;;32.30;97.70;;;;;;5028493;28;20056;-75
2023/07/12 07:22:51;;;;;;;15.63;4.25;;;31.70;98.60;;;;;;5026061;28;20053;-73
2023/07/12 07:26:00;;;;;;;17.73;4.15;;;31.80;98.50;;;;;;5025571;28;20044;-74
2023/07/12 07:29:04;;;;;;;14.70;4.85;;;33.20;97.40;;;;;;5026451;28;20052;-72
2023/07/12 07:32:08;;;;;;;14.00;3.70;;;33.80;96.40;;;;;;5027119;28;20416;-73
2023/07/12 07:35:13;;;;;;;11.50;4.75;;;34.30;95.60;;;;;;5024720;28;20060;-76
2023/07/12 07:38:16;;;;;;;11.55;3.97;;;34.50;95.30;;;;;;5026803;28;20048;-76
2023/07/12 07:41:21;;;;;;;15.98;4.03;;;34.50;94.40;;;;;;5026280;28;20041;-74
2023/07/12 07:44:26;;;;;;;16.70;4.15;;;34.80;94.60;;;;;;5027606;28;20057;-74
2023/07/12 07:47:30;;;;;;;11.77;3.63;;;35.80;93.30;;;;;;5019338;28;20052;-76
2023/07/12 07:50:34;;;;;;;14.45;4.40;;;35.40;93.70;;;;;;5030589;28;20044;-73
2023/07/12 07:53:39;;;;;;;14.77;4.38;;;33.50;95.30;;;;;;5013889;28;20041;-75
2023/07/12 07:56:43;;;;;;;13.75;4.50;;;33.50;95.20;;;;;;5025839;28;20048;-75
2023/07/12 07:59:47;;;;;;;9.65;4.55;;;33.30;95.60;;;;;;5026919;28;20044;-73
2023/07/12 08:02:53;;;;;;;12.02;3.75;;;34.00;95.00;;;;;;5003452;28;20048;-76
2023/07/12 08:06:01;;;;;;;14.20;3.92;;;34.20;94.50;;;;;;5026212;28;20680;-75
2023/07/12 08:09:07;;;;;;;13.90;3.95;;;33.80;94.60;;;;;;5024197;28;20056;-74
2023/07/12 08:12:12;;;;;;;12.95;3.90;;;35.20;93.80;;;;;;5026034;28;20506;-76
2023/07/12 08:15:18;;;;;;;11.00;3.92;;;37.50;91.60;;;;;;5024592;28;20372;-75
2023/07/12 08:18:23;;;;;;;10.18;3.70;;;38.40;91.00;;;;;;5022633;28;20049;-74
2023/07/12 08:21:26;;;;;;;11.40;3.97;;;38.90;90.80;;;;;;5022747;28;20388;-75
2023/07/12 08:24:31;;;;;;;19.63;4.30;;;37.90;90.80;;;;;;5021887;28;20523;-74
2023/07/12 08:27:35;;;;;;;15.65;4.47;;;35.90;91.70;;;;;;5025244;28;20040;-73
2023/07/12 08:30:39;;;;;;;14.35;5.30;;;35.10;93.00;;;;;;5022028;28;20044;-74
2023/07/12 08:33:44;;;;;;;15.27;4.53;;;33.80;93.60;;;;;;5031245;28;20068;-76
2023/07/12 08:36:48;;;;;;;19.30;4.65;;;32.60;95.10;;;;;;5025913;28;20151;-75
2023/07/12 08:39:52;;;;;;;14.48;4.60;;;31.00;96.70;;;;;;5024351;28;20044;-75
2023/07/12 08:42:56;;;;;;;17.42;4.65;;;30.70;97.50;;;;;;5023173;28;20072;-73
2023/07/12 08:46:20;;;;;;;15.45;5.03;;;30.70;97.20;;;;;;5026092;28;20052;-73
2023/07/12 08:49:25;;;;;;;17.77;4.95;;;30.50;97.50;;;;;;5021541;28;20049;-73
2023/07/12 08:52:33;;;;;;;13.50;4.68;;;30.70;97.10;;;;;;5019499;28;20056;-72
2023/07/12 08:55:38;;;;;;;22.17;5.45;;;30.90;97.20;;;;;;5019969;28;20049;-73
2023/07/12 08:58:49;;;;;;;12.85;4.63;;;31.00;97.30;;;;;;5025565;28;20036;-73
2023/07/12 09:01:53;;;;;;;20.13;5.80;;;30.60;97.80;;;;;;5018479;28;20393;-74
2023/07/12 09:04:59;;;;;;;17.85;5.30;;;30.60;97.60;;;;;;5027264;28;20044;-75
2023/07/12 09:08:18;;;;;;;19.55;4.85;;;31.20;97.60;;;;;;5020144;28;20057;-73
2023/07/12 09:11:28;;;;;;;25.77;5.18;;;33.40;95.50;;;;;;5027159;28;20048;-75
2023/07/12 09:14:36;;;;;;;16.53;4.57;;;35.30;93.00;;;;;;5021147;28;20061;-74
2023/07/12 09:17:44;;;;;;;15.63;4.82;;;38.20;91.60;;;;;;5021271;28;20048;-75
2023/07/12 09:20:50;;;;;;;14.18;4.47;;;38.90;90.30;;;;;;5024965;28;20044;-74
2023/07/12 09:24:00;;;;;;;24.30;5.65;;;39.00;90.30;;;;;;5023275;28;20384;-76
2023/07/12 09:27:16;;;;;;;16.30;3.95;;;36.80;91.40;;;;;;5026714;28;20040;-79
2023/07/12 09:30:25;;;;;;;16.00;4.28;;;36.10;92.90;;;;;;5028493;28;20056;-76
2023/07/12 09:33:29;;;;;;;22.33;5.07;;;37.00;92.20;;;;;;5026129;28;20637;-77
2023/07/12 09:36:39;;;;;;;23.83;5.70;;;38.00;91.90;;;;;;5028105;28;20048;-76
2023/07/12 09:39:58;;;;;;;19.23;4.78;;;36.70;90.60;;;;;;5014535;28;20052;-75
2023/07/12 09:43:12;;;;;;;18.10;4.35;;;36.30;91.40;;;;;;5023728;28;20048;-75
2023/07/12 09:46:40;;;;;;;21.05;4.90;;;36.80;91.30;;;;;;5026272;28;20056;-76
2023/07/12 09:49:53;;;;;;;22.20;5.40;;;35.40;91.80;;;;;;5024046;28;20404;-75
2023/07/12 09:53:16;;;;;;;16.48;5.13;;;34.40;93.00;;;;;;5025721;28;20049;-74
2023/07/12 09:56:49;;;;;;;26.70;5.55;;;36.60;91.90;;;;;;5027270;28;20037;-76
2023/07/12 10:00:26;;;;;;;38.78;6.38;;;36.40;92.40;;;;;;5025398;28;20048;-73
2023/07/12 10:03:41;;;;;;;16.38;5.10;;;38.50;90.90;;;;;;5029432;28;20044;-76
2023/07/12 10:06:50;;;;;;;18.92;4.88;;;39.00;87.90;;;;;;5023880;28;20056;-75
2023/07/12 10:09:56;;;;;;;22.38;5.03;;;38.60;89.30;;;;;;5027463;28;20383;-75
2023/07/12 10:13:16;;;;;;;20.50;5.63;;;36.00;90.60;;;;;;5027424;28;20045;-75
2023/07/12 10:16:32;;;;;;;23.52;5.32;;;38.60;90.00;;;;;;5030712;28;20581;-74
2023/07/12 10:19:38;;;;;;;19.65;5.07;;;39.20;88.80;;;;;;5022424;28;20396;-76
2023/07/12 10:22:44;;;;;;;21.67;5.55;;;37.80;89.80;;;;;;5030867;28;20487;-73
2023/07/12 10:25:56;;;;;;;26.65;5.22;;;37.20;90.60;;;;;;5016902;28;20044;-76
2023/07/12 10:29:11;;;;;;;23.77;5.45;;;36.00;90.30;;;;;;5028242;28;20487;-74
2023/07/12 10:32:29;;;;;;;20.90;5.10;;;36.60;90.60;;;;;;5028523;28;20056;-74
2023/07/12 10:35:47;;;;;;;22.35;5.00;;;37.80;90.90;;;;;;5019810;28;20057;-73
2023/07/12 10:38:52;;;;;;;23.83;4.75;;;40.30;88.30;;;;;;5029080;28;20384;-75
2023/07/12 10:42:07;;;;;;;19.48;4.90;;;40.60;87.90;;;;;;5033151;28;20057;-74
2023/07/12 10:45:29;;;;;;;20.35;5.22;;;40.10;87.70;;;;;;5032869;28;20385;-73
2023/07/12 10:48:34;;;;;;;17.77;4.72;;;41.20;87.90;;;;;;5027392;28;20063;-76
2023/07/12 10:51:41;;;;;;;26.40;5.30;;;40.70;86.80;;;;;;5012304;28;20381;-75
2023/07/12 10:55:16;;;;;;;22.55;4.63;;;40.80;88.10;;;;;;5019963;28;20380;-74
2023/07/12 10:58:20;;;;;;;24.13;5.22;;;39.80;87.70;;;;;;5009882;28;20044;-73
2023/07/12 11:01:55;;;;;;;21.42;5.18;;;40.00;87.00;;;;;;5025145;28;20052;-71
2023/07/12 11:04:59;;;;;;;20.38;5.05;;;40.10;87.20;;;;;;5028321;28;20040;-72
2023/07/12 11:08:04;;;;;;;27.70;5.93;;;40.00;85.90;;;;;;5026965;28;20388;-72
2023/07/12 11:11:08;;;;;;;20.75;4.32;;;36.90;88.40;;;;;;5026268;28;20388;-73
2023/07/12 11:14:20;;;;;;;22.70;6.05;;;37.30;90.30;;;;;;5008055;28;20045;-74
2023/07/12 11:17:28;;;;;;;21.58;5.10;;;39.00;89.00;;;;;;5016999;28;20071;-72
2023/07/12 11:20:54;;;;;;;25.13;5.43;;;40.10;87.10;;;;;;5023657;28;20037;-77
2023/07/12 11:23:58;;;;;;;20.17;6.10;;;37.10;89.00;;;;;;5026218;28;20396;-72
2023/07/12 11:27:04;;;;;;;27.73;5.22;;;36.90;90.00;;;;;;5028593;28;20067;-72
2023/07/12 11:30:27;;;;;;;25.08;5.22;;;38.20;90.20;;;;;;5017749;28;20057;-74
2023/07/12 11:33:35;;;;;;;27.08;6.55;;;39.00;87.70;;;;;;5024596;28;20044;-74
2023/07/12 11:36:39;;;;;;;28.20;5.63;;;36.20;90.70;;;;;;5026026;28;20488;-73
2023/07/12 11:39:46;;;;;;;20.60;5.22;;;38.30;89.50;;;;;;5027610;28;20058;-75
2023/07/12 11:42:51;;;;;;;19.70;4.90;;;35.50;90.30;;;;;;5026268;28;20109;-76
2023/07/12 11:45:56;;;;;;;21.52;5.03;;;37.10;90.60;;;;;;5024993;28;20044;-72
2023/07/12 11:49:20;;;;;;;25.98;5.20;;;36.90;91.80;;;;;;5026393;28;20052;-73
2023/07/12 11:52:27;;;;;;;18.58;6.43;;;37.20;90.40;;;;;;5022646;28;20057;-75
2023/07/12 11:55:33;;;;;;;27.27;6.25;;;35.50;91.10;;;;;;5024879;28;20507;-74
2023/07/12 11:58:39;;;;;;;24.08;5.55;;;35.90;91.60;;;;;;5021204;28;20060;-72
2023/07/12 12:01:44;;;;;;;20.33;5.95;;;36.20;91.80;;;;;;5025561;28;20048;-74
2023/07/12 12:04:55;;;;;;;33.65;7.15;;;37.20;92.20;;;;;;5019235;28;20036;-73
2023/07/12 12:08:01;;;;;;;24.20;6.63;;;37.50;90.90;;;;;;5024889;28;20033;-74
2023/07/12 12:11:07;;;;;;;29.88;6.85;;;37.30;90.80;;;;;;5024549;28;20036;-74
2023/07/12 12:14:21;;;;;;;23.58;5.85;;;36.00;91.70;;;;;;5020414;28;20064;-72
2023/07/12 12:17:29;;;;;;;21.00;5.88;;;36.60;91.30;;;;;;5028322;28;20040;-73
2023/07/12 12:20:35;;;;;;;18.70;5.90;;;36.60;92.10;;;;;;5024666;28;20049;-73
2023/07/12 12:23:48;;;;;;;26.13;6.05;;;36.70;91.60;;;;;;5025626;28;20040;-73
2023/07/12 12:26:55;;;;;;;22.35;5.22;;;37.10;92.00;;;;;;5026460;28;20155;-74
2023/07/12 12:30:08;;;;;;;22.55;6.07;;;37.20;91.30;;;;;;5030330;28;20048;-74
2023/07/12 12:33:24;;;;;;;24.85;6.05;;;35.10;92.50;;;;;;5028396;28;20056;-73
